Time;durP1;ratioP1;P1;durP2;ratioP2;P2;SDS_P1;SDS_P2;PMS_P1;PMS_P2;Temp;Humidity;BMP_temperature;BMP_pressure;BME280_temperature;BME280_humidity;BME280_pressure;Samples;Min_cycle;Max_cycle;Signal;HPM_P1;HPM_P2
2022/06/30 00:00:14;;;;;;;9.63;7.32;;;;;;;30.42;37.29;101160.56;5034086;28;20503;-71
2022/06/30 00:02:40;;;;;;;9.80;7.47;;;;;;;30.38;38.15;101159.13;5033264;28;20021;-71
2022/06/30 00:05:07;;;;;;;9.15;7.05;;;;;;;30.62;37.93;101150.69;5065863;28;20473;-71
2022/06/30 00:07:32;;;;;;;12.70;7.43;;;;;;;29.25;39.84;101156.22;5053558;28;20104;-71
2022/06/30 00:09:58;;;;;;;10.02;8.10;;;;;;;30.05;38.45;101153.06;5033999;28;20115;-71
2022/06/30 00:12:23;;;;;;;12.00;8.35;;;;;;;30.29;37.88;101155.41;5034676;28;20021;-71
2022/06/30 00:14:49;;;;;;;10.27;7.85;;;;;;;30.42;37.84;101160.56;5040838;28;20020;-71
2022/06/30 00:17:14;;;;;;;11.50;7.28;;;;;;;30.63;37.60;101150.56;5052910;28;20039;-71
2022/06/30 00:19:40;;;;;;;11.25;7.88;;;;;;;30.58;37.73;101149.25;5072659;28;20439;-71
2022/06/30 00:22:07;;;;;;;13.48;9.48;;;;;;;30.75;36.87;101145.06;5050639;28;20025;-71
2022/06/30 00:24:33;;;;;;;14.02;8.25;;;;;;;29.90;38.22;101145.31;5050809;28;20090;-71
2022/06/30 00:26:58;;;;;;;14.18;9.35;;;;;;;30.33;37.40;101139.81;5044689;28;20033;-71
2022/06/30 00:29:24;;;;;;;14.98;9.90;;;;;;;30.54;37.64;101140.63;5052241;28;20059;-71
2022/06/30 00:31:49;;;;;;;14.77;10.18;;;;;;;31.18;36.41;101129.47;5072525;28;20028;-71
2022/06/30 00:34:15;;;;;;;13.98;9.75;;;;;;;30.70;36.57;101131.13;5037845;28;20021;-71
2022/06/30 00:36:40;;;;;;;13.70;10.18;;;;;;;30.18;38.26;101124.00;5061092;28;20056;-70
2022/06/30 00:39:06;;;;;;;16.58;11.88;;;;;;;30.27;38.11;101125.03;5052415;28;20028;-71
2022/06/30 00:41:31;;;;;;;15.10;10.70;;;;;;;30.71;37.04;101127.44;5048579;28;20042;-71
2022/06/30 00:43:57;;;;;;;21.67;11.15;;;;;;;29.85;38.78;101120.59;5079070;28;20089;-71
2022/06/30 00:46:22;;;;;;;14.52;11.25;;;;;;;29.88;38.32;101128.44;5075772;28;20388;-71
2022/06/30 00:48:47;;;;;;;14.73;11.77;;;;;;;29.71;38.99;101126.31;5084133;28;20024;-71
2022/06/30 00:51:13;;;;;;;16.92;12.45;;;;;;;29.08;40.21;101121.75;5090783;28;20643;-71
2022/06/30 00:53:40;;;;;;;15.95;12.32;;;;;;;30.03;38.58;101122.69;5076910;28;20533;-71
2022/06/30 00:56:08;;;;;;;15.98;11.60;;;;;;;30.03;38.55;101125.38;5074516;28;20568;-71
2022/06/30 00:58:40;;;;;;;12.05;10.52;;;;;;;29.89;38.88;101116.66;5074992;28;20472;-71
2022/06/30 01:01:08;;;;;;;15.77;12.15;;;;;;;29.54;39.55;101120.56;5088919;28;20024;-71
2022/06/30 01:03:34;;;;;;;18.77;13.15;;;;;;;29.39;39.78;101119.19;5075212;28;20058;-71
2022/06/30 01:06:01;;;;;;;19.17;12.75;;;;;;;29.29;40.06;101108.34;5088979;28;20444;-71
2022/06/30 01:08:31;;;;;;;15.40;12.40;;;;;;;30.03;38.64;101114.59;5087219;28;20024;-71
2022/06/30 01:13:46;;;;;;;17.67;12.95;;;;;;;29.29;40.28;101111.03;5076953;28;20039;-71
2022/06/30 01:16:12;;;;;;;17.27;12.18;;;;;;;29.81;39.14;101108.34;5091809;28;20032;-71
2022/06/30 01:18:37;;;;;;;14.80;12.48;;;;;;;29.57;39.71;101109.53;5084576;28;20017;-71
2022/06/30 01:21:03;;;;;;;16.48;13.35;;;;;;;29.76;38.51;101107.94;5103450;28;20116;-71
2022/06/30 01:23:28;;;;;;;14.52;12.15;;;;;;;29.98;38.22;101108.75;5069192;28;20021;-71
2022/06/30 01:25:54;;;;;;;24.92;14.38;;;;;;;29.67;38.90;101111.41;5082972;28;20101;-71
2022/06/30 01:28:20;;;;;;;18.80;13.75;;;;;;;29.94;38.62;101124.34;5073782;28;20444;-71
2022/06/30 01:30:46;;;;;;;15.88;13.10;;;;;;;29.72;38.86;101119.97;5070061;28;20020;-71
2022/06/30 01:33:12;;;;;;;15.23;13.60;;;;;;;29.42;39.18;101124.31;5076944;28;20027;-71
2022/06/30 01:35:38;;;;;;;17.13;13.48;;;;;;;28.87;40.01;101144.09;5091696;28;20498;-71
2022/06/30 01:38:04;;;;;;;21.13;15.02;;;;;;;25.85;48.94;101171.22;5071027;28;20467;-71
2022/06/30 01:40:33;;;;;;;20.48;14.05;;;;;;;25.87;51.80;101158.59;5069774;28;20480;-71
2022/06/30 01:42:59;;;;;;;17.23;14.10;;;;;;;26.71;47.41;101158.09;5052689;28;20040;-71
2022/06/30 01:45:25;;;;;;;15.85;13.40;;;;;;;27.17;46.11;101170.75;5033634;28;20428;-71
2022/06/30 01:47:52;;;;;;;20.77;14.95;;;;;;;28.29;42.97;101162.25;5031863;28;20036;-71
2022/06/30 01:50:22;;;;;;;19.63;14.18;;;;;;;27.68;43.97;101180.34;5055487;28;20498;-71
2022/06/30 01:52:47;;;;;;;19.00;14.25;;;;;;;28.53;42.35;101160.25;5051113;28;20017;-71
2022/06/30 01:55:13;;;;;;;17.42;13.52;;;;;;;29.42;40.16;101162.00;5052986;28;20039;-71
2022/06/30 01:57:39;;;;;;;16.23;13.57;;;;;;;28.03;43.13;101178.63;5040396;28;20047;-71
2022/06/30 02:00:07;;;;;;;19.35;13.65;;;;;;;27.78;43.52;101145.59;5049387;28;20125;-71
2022/06/30 02:02:32;;;;;;;16.83;12.65;;;;;;;27.64;43.70;101172.66;5032003;28;20056;-71
2022/06/30 02:04:58;;;;;;;18.98;13.13;;;;;;;29.20;40.94;101163.78;5051196;28;20366;-71
2022/06/30 02:07:23;;;;;;;16.17;12.45;;;;;;;29.55;39.77;101159.97;5032515;28;20393;-71
2022/06/30 02:09:51;;;;;;;15.13;12.27;;;;;;;29.64;39.37;101168.25;5033195;28;20111;-71
2022/06/30 02:15:02;;;;;;;17.02;13.00;;;;;;;28.88;40.87;101151.19;5063692;28;20404;-71
2022/06/30 02:17:28;;;;;;;19.70;13.20;;;;;;;29.64;39.13;101185.25;5038385;28;20039;-71
2022/06/30 02:19:53;;;;;;;19.30;13.02;;;;;;;29.08;40.80;101172.88;5045145;28;20423;-71
2022/06/30 02:22:18;;;;;;;15.20;11.65;;;;;;;28.83;40.75;101166.84;5071320;28;20036;-71
2022/06/30 02:24:44;;;;;;;14.85;12.52;;;;;;;29.60;38.92;101157.72;5054708;28;20159;-70
2022/06/30 02:27:09;;;;;;;17.08;12.13;;;;;;;29.36;39.75;101173.28;5040967;28;20374;-71
2022/06/30 02:29:35;;;;;;;16.98;11.63;;;;;;;29.56;39.53;101161.66;5035819;28;20104;-71
2022/06/30 02:32:00;;;;;;;23.08;12.00;;;;;;;29.50;39.44;101164.88;5035744;28;20507;-70
2022/06/30 02:34:28;;;;;;;18.40;13.57;;;;;;;29.86;38.63;101154.66;5040717;28;20516;-71
2022/06/30 02:36:53;;;;;;;20.92;13.68;;;;;;;29.54;39.51;101157.38;5051416;28;20468;-71
2022/06/30 02:39:19;;;;;;;17.38;12.38;;;;;;;29.43;39.83;101158.34;5036504;28;20448;-71
2022/06/30 02:41:44;;;;;;;19.60;12.57;;;;;;;29.46;39.69;101152.69;5051217;28;20044;-71
2022/06/30 02:44:10;;;;;;;19.50;12.68;;;;;;;29.51;39.19;101144.19;5082260;28;20039;-71
2022/06/30 02:46:35;;;;;;;15.98;12.48;;;;;;;29.74;38.87;101144.91;5085391;28;20028;-71
2022/06/30 02:49:01;;;;;;;21.73;13.32;;;;;;;29.30;39.71;101141.50;5093849;28;20117;-71
2022/06/30 02:51:26;;;;;;;20.33;12.45;;;;;;;29.22;40.02;101134.91;5076443;28;20031;-71
2022/06/30 02:53:51;;;;;;;19.92;12.90;;;;;;;29.21;39.77;101133.19;5072898;28;20438;-71
2022/06/30 02:56:17;;;;;;;15.30;12.18;;;;;;;29.22;40.20;101145.69;5073690;28;20120;-70
2022/06/30 02:58:43;;;;;;;18.52;14.20;;;;;;;29.12;40.14;101139.34;5082893;28;20058;-71
2022/06/30 03:01:08;;;;;;;21.20;13.77;;;;;;;29.48;39.56;101149.84;5088342;28;20031;-71
2022/06/30 03:03:34;;;;;;;24.65;14.18;;;;;;;28.64;41.10;101151.34;5079621;28;20502;-71
2022/06/30 03:05:59;;;;;;;22.25;14.25;;;;;;;28.94;40.49;101157.88;5074775;28;20024;-71
2022/06/30 03:08:25;;;;;;;21.15;14.98;;;;;;;28.70;41.41;101166.13;5081110;28;20477;-71
2022/06/30 03:10:50;;;;;;;19.88;14.93;;;;;;;28.59;41.48;101153.53;5073335;28;20028;-72
2022/06/30 03:13:15;;;;;;;22.80;15.88;;;;;;;28.65;40.70;101146.84;5072647;28;20025;-71
2022/06/30 03:15:41;;;;;;;20.50;14.65;;;;;;;28.57;41.19;101153.66;5072874;28;20016;-71
2022/06/30 03:18:07;;;;;;;19.25;15.20;;;;;;;28.72;41.20;101153.44;5072266;28;20028;-71
2022/06/30 03:20:33;;;;;;;18.58;15.15;;;;;;;28.79;41.09;101138.50;5071789;28;20111;-71
2022/06/30 03:22:58;;;;;;;20.70;15.13;;;;;;;28.67;41.25;101134.13;5072439;28;20024;-71
2022/06/30 03:25:23;;;;;;;20.17;15.38;;;;;;;28.15;42.09;101134.66;5071847;28;20028;-71
2022/06/30 03:27:49;;;;;;;21.65;15.13;;;;;;;28.56;41.72;101132.28;5075343;28;20433;-71
2022/06/30 03:30:14;;;;;;;23.38;15.32;;;;;;;28.30;42.34;101129.03;5084000;28;20566;-71
2022/06/30 03:32:39;;;;;;;23.75;14.95;;;;;;;28.26;42.34;101134.66;5073377;28;20060;-71
2022/06/30 03:35:06;;;;;;;23.30;16.38;;;;;;;28.67;40.82;101134.13;5072195;28;20077;-71
2022/06/30 03:37:31;;;;;;;19.50;16.35;;;;;;;28.24;41.98;101136.59;5072422;28;20020;-71
2022/06/30 03:39:57;;;;;;;23.85;15.93;;;;;;;28.51;41.52;101129.97;5079150;28;20020;-71
2022/06/30 03:42:23;;;;;;;22.23;14.95;;;;;;;28.35;41.81;101124.13;5073419;28;20072;-71
2022/06/30 03:44:49;;;;;;;23.83;15.32;;;;;;;28.15;42.45;101118.56;5072373;28;20016;-71
2022/06/30 03:47:14;;;;;;;19.42;15.20;;;;;;;28.70;41.34;101126.66;5070105;28;20040;-71
2022/06/30 03:49:40;;;;;;;22.55;15.88;;;;;;;28.37;41.56;101132.91;5071958;28;20027;-71
2022/06/30 03:52:05;;;;;;;22.67;14.77;;;;;;;28.66;41.71;101133.28;5071565;28;20040;-71
2022/06/30 03:54:31;;;;;;;22.80;16.38;;;;;;;28.38;42.01;101129.25;5071081;28;20104;-71
2022/06/30 03:56:56;;;;;;;22.95;15.73;;;;;;;28.10;42.55;101139.53;5071810;28;20052;-71
2022/06/30 03:59:21;;;;;;;24.77;15.57;;;;;;;28.31;42.55;101136.13;5073240;28;20021;-71
2022/06/30 04:01:47;;;;;;;22.00;14.93;;;;;;;28.35;41.93;101141.09;5069752;28;20024;-71
2022/06/30 04:04:12;;;;;;;24.08;16.35;;;;;;;28.08;42.51;101128.06;5071756;28;20021;-71
2022/06/30 04:06:38;;;;;;;22.45;15.52;;;;;;;28.30;42.23;101120.97;5071371;28;20119;-71
2022/06/30 04:09:03;;;;;;;18.92;14.48;;;;;;;28.64;41.18;101126.31;5083526;28;20056;-71
2022/06/30 04:11:28;;;;;;;19.40;14.80;;;;;;;28.57;41.09;101126.78;5092100;28;20062;-71
2022/06/30 04:13:54;;;;;;;22.15;15.25;;;;;;;28.34;41.69;101122.41;5091563;28;20076;-71
2022/06/30 04:16:19;;;;;;;19.83;14.98;;;;;;;28.50;41.48;101117.50;5071906;28;20111;-73
2022/06/30 04:18:44;;;;;;;22.52;15.63;;;;;;;28.38;41.69;101122.03;5071485;28;20430;-71
2022/06/30 04:21:11;;;;;;;20.27;13.18;;;;;;;28.32;41.99;101136.00;5072044;28;20113;-71
2022/06/30 04:23:37;;;;;;;21.00;15.68;;;;;;;26.82;45.13;101157.28;5071080;28;20035;-71
2022/06/30 04:26:02;;;;;;;21.50;14.88;;;;;;;26.89;45.73;101170.13;5071308;28;20028;-70
2022/06/30 04:28:28;;;;;;;24.98;15.48;;;;;;;25.27;50.90;101188.53;5071268;28;20435;-72
2022/06/30 04:33:37;;;;;;;15.27;11.40;;;;;;;27.19;44.23;101158.09;5076402;28;20043;-71
2022/06/30 04:36:04;;;;;;;14.50;10.65;;;;;;;25.79;49.23;101182.34;5069960;28;20032;-71
2022/06/30 04:38:29;;;;;;;12.45;9.40;;;;;;;26.58;47.07;101184.88;5073098;28;20115;-71
2022/06/30 04:43:39;;;;;;;10.55;6.90;;;;;;;27.60;43.57;101177.41;5051386;28;20459;-71
2022/06/30 04:46:04;;;;;;;8.93;5.45;;;;;;;27.02;44.80;101188.00;5040641;28;20025;-71
2022/06/30 04:48:29;;;;;;;7.03;4.97;;;;;;;25.75;48.48;101204.94;5040787;28;20032;-71
2022/06/30 04:50:55;;;;;;;11.50;5.05;;;;;;;26.92;45.27;101212.81;5053443;28;20020;-71
2022/06/30 04:53:20;;;;;;;7.53;3.90;;;;;;;28.06;42.25;101189.97;5054136;28;20094;-71
2022/06/30 04:55:45;;;;;;;5.25;3.17;;;;;;;28.03;42.15;101194.75;5069704;28;20028;-71
2022/06/30 04:58:11;;;;;;;4.93;2.85;;;;;;;29.15;38.95;101198.28;5041022;28;20460;-72
2022/06/30 05:00:36;;;;;;;5.25;3.10;;;;;;;28.52;40.40;101196.22;5070956;28;20109;-71
2022/06/30 05:03:02;;;;;;;6.70;2.90;;;;;;;28.88;39.75;101196.91;5052848;28;20020;-71
2022/06/30 05:05:27;;;;;;;5.60;3.78;;;;;;;29.63;39.32;101197.00;5050995;28;20338;-71
2022/06/30 05:07:53;;;;;;;6.82;4.03;;;;;;;28.67;41.48;101201.34;5051695;28;20021;-71
2022/06/30 05:10:18;;;;;;;7.72;4.85;;;;;;;28.07;42.37;101201.59;5033290;28;20025;-71
2022/06/30 05:12:44;;;;;;;7.75;4.57;;;;;;;27.76;42.83;101211.97;5064706;28;20031;-71
2022/06/30 05:15:09;;;;;;;10.40;4.82;;;;;;;27.52;44.22;101223.63;5038637;28;20035;-71
2022/06/30 05:17:35;;;;;;;14.25;4.72;;;;;;;28.41;43.61;101225.75;5049886;28;20036;-71
2022/06/30 05:20:01;;;;;;;8.05;4.18;;;;;;;28.33;43.30;101222.84;5050509;28;20119;-71
2022/06/30 05:22:26;;;;;;;14.13;4.82;;;;;;;28.75;41.72;101218.56;5053830;28;20091;-71
2022/06/30 05:27:35;;;;;;;7.82;3.08;;;;;;;28.02;42.66;101228.78;5050922;28;20565;-71
2022/06/30 05:30:01;;;;;;;7.28;3.35;;;;;;;27.37;45.09;101230.16;5042961;28;20071;-71
2022/06/30 05:32:27;;;;;;;5.38;2.72;;;;;;;27.32;45.29;101237.66;5045664;28;20028;-71
2022/06/30 05:34:52;;;;;;;8.45;2.95;;;;;;;27.86;43.75;101222.88;5069841;28;20033;-71
2022/06/30 05:37:17;;;;;;;8.55;2.63;;;;;;;26.97;45.38;101223.22;5037191;28;20079;-71
2022/06/30 05:39:43;;;;;;;7.40;2.33;;;;;;;26.69;46.80;101224.31;5043794;28;20437;-71
2022/06/30 05:42:08;;;;;;;12.27;3.03;;;;;;;27.43;45.06;101229.69;5069281;28;20040;-73
2022/06/30 05:44:34;;;;;;;10.20;3.03;;;;;;;27.72;44.47;101218.56;5052231;28;20548;-71
2022/06/30 05:46:59;;;;;;;8.25;3.40;;;;;;;27.71;43.53;101214.16;5039774;28;20063;-73
2022/06/30 05:49:25;;;;;;;6.00;2.75;;;;;;;27.78;43.39;101202.00;5035947;28;20032;-72
2022/06/30 05:51:52;;;;;;;4.75;2.45;;;;;;;28.87;41.30;101197.03;5033710;28;20045;-71
2022/06/30 05:54:17;;;;;;;6.60;2.15;;;;;;;27.87;43.19;101212.00;5043083;28;20033;-72
2022/06/30 05:56:43;;;;;;;11.20;2.45;;;;;;;27.77;43.26;101205.66;5043946;28;20032;-71
2022/06/30 05:59:09;;;;;;;8.70;1.77;;;;;;;26.89;44.05;101207.69;5035450;28;20365;-73
2022/06/30 06:01:34;;;;;;;6.78;1.67;;;;;;;27.12;43.64;101198.91;5050179;28;20031;-73
2022/06/30 06:03:59;;;;;;;4.30;1.63;;;;;;;27.40;42.89;101193.19;5044572;28;20033;-73
2022/06/30 06:06:25;;;;;;;5.80;1.88;;;;;;;26.92;43.66;101204.75;5042904;28;20491;-74
2022/06/30 06:08:50;;;;;;;6.03;2.03;;;;;;;27.73;42.79;101194.28;5034868;28;20025;-73
2022/06/30 06:11:15;;;;;;;5.95;1.55;;;;;;;26.65;44.67;101206.75;5037281;28;20396;-73
2022/06/30 06:13:41;;;;;;;3.60;1.70;;;;;;;26.29;44.82;101198.56;5036536;28;20047;-73
2022/06/30 06:16:06;;;;;;;4.65;1.50;;;;;;;27.28;42.71;101209.34;5057235;28;20037;-73
2022/06/30 06:18:32;;;;;;;6.40;1.67;;;;;;;28.58;39.73;101203.78;5072034;28;20487;-73
2022/06/30 06:20:58;;;;;;;6.22;1.50;;;;;;;30.39;36.50;101203.94;5040332;28;20368;-73
2022/06/30 06:23:23;;;;;;;5.30;2.80;;;;;;;31.65;34.46;101201.66;5058542;28;20119;-73
2022/06/30 06:25:48;;;;;;;5.13;1.80;;;;;;;32.23;32.60;101196.13;5036299;28;20472;-73
2022/06/30 06:30:58;;;;;;;3.60;1.50;;;;;;;33.58;30.37;101213.47;5062326;28;20040;-73
2022/06/30 06:33:23;;;;;;;5.40;1.48;;;;;;;33.58;30.24;101218.91;5046291;28;20396;-73
2022/06/30 06:35:49;;;;;;;5.70;1.52;;;;;;;34.61;29.24;101212.75;5050754;28;20131;-73
2022/06/30 06:38:15;;;;;;;3.80;1.00;;;;;;;35.36;28.21;101221.09;5055798;28;20633;-73
2022/06/30 06:40:41;;;;;;;2.63;1.08;;;;;;;36.27;27.71;101219.94;5056739;28;20021;-73
2022/06/30 06:43:06;;;;;;;3.25;1.08;;;;;;;35.78;27.11;101233.66;5074965;28;20456;-73
2022/06/30 06:45:32;;;;;;;4.10;1.88;;;;;;;34.86;28.18;101223.72;5072925;28;20067;-73
2022/06/30 06:47:57;;;;;;;4.70;1.23;;;;;;;34.62;28.35;101238.88;5072065;28;20510;-73
2022/06/30 06:50:23;;;;;;;3.85;1.17;;;;;;;34.02;28.45;101239.72;5086351;28;20028;-73
2022/06/30 06:52:48;;;;;;;4.60;1.00;;;;;;;36.89;26.40;101242.00;5090266;28;20054;-73
2022/06/30 06:55:16;;;;;;;4.40;1.10;;;;;;;35.13;26.99;101246.16;5081309;28;20514;-73
2022/06/30 06:57:43;;;;;;;3.95;1.27;;;;;;;36.36;24.96;101236.28;5083753;28;20052;-73
2022/06/30 07:00:10;;;;;;;2.20;1.00;;;;;;;35.94;25.72;101249.97;5088714;28;20077;-73
2022/06/30 07:02:35;;;;;;;3.83;1.05;;;;;;;37.37;24.23;101241.84;5077663;28;20058;-73
2022/06/30 07:05:01;;;;;;;3.65;1.35;;;;;;;36.86;24.95;101245.91;5072310;28;20028;-73
2022/06/30 07:07:26;;;;;;;2.50;0.90;;;;;;;36.85;24.77;101249.69;5071792;28;20032;-73
2022/06/30 07:09:52;;;;;;;1.88;1.02;;;;;;;37.17;25.23;101251.34;5073075;28;20456;-73
2022/06/30 07:12:17;;;;;;;4.00;0.90;;;;;;;37.38;24.38;101259.91;5074150;28;20410;-72
2022/06/30 07:14:43;;;;;;;3.47;0.85;;;;;;;37.15;25.01;101260.72;5077915;28;20078;-73
2022/06/30 07:17:09;;;;;;;4.40;0.93;;;;;;;37.40;24.57;101260.56;5072877;28;20039;-73
2022/06/30 07:19:35;;;;;;;4.30;1.25;;;;;;;32.69;28.85;101265.66;5073285;28;20035;-72
2022/06/30 07:22:00;;;;;;;3.85;1.30;;;;;;;33.85;27.90;101271.28;5078201;28;20028;-73
2022/06/30 07:24:26;;;;;;;2.53;0.95;;;;;;;34.35;27.41;101268.91;5072168;28;20036;-73
2022/06/30 07:26:51;;;;;;;4.28;1.02;;;;;;;34.98;25.87;101271.25;5078993;28;20067;-73
2022/06/30 07:29:17;;;;;;;3.58;1.25;;;;;;;33.65;28.36;101276.03;5076192;28;20020;-70
2022/06/30 07:31:42;;;;;;;4.78;1.45;;;;;;;35.43;26.74;101287.31;5073135;28;20031;-73
2022/06/30 07:34:08;;;;;;;4.22;1.38;;;;;;;35.87;25.18;101278.84;5089883;28;20451;-72
2022/06/30 07:36:35;;;;;;;4.38;1.42;;;;;;;37.06;24.70;101270.00;5084085;28;20033;-73
2022/06/30 07:39:01;;;;;;;3.75;1.15;;;;;;;37.47;23.88;101272.44;5073416;28;20020;-73
2022/06/30 07:41:28;;;;;;;3.70;1.02;;;;;;;38.16;22.30;101266.84;5067359;28;20053;-73
2022/06/30 07:43:53;;;;;;;4.05;0.90;;;;;;;38.55;22.11;101264.88;5063018;28;20032;-74
2022/06/30 07:46:19;;;;;;;4.45;1.30;;;;;;;38.57;21.22;101272.88;5044620;28;20843;-74
2022/06/30 07:48:45;;;;;;;6.30;1.10;;;;;;;38.27;21.18;101284.69;5040561;28;20082;-75
2022/06/30 07:51:10;;;;;;;3.72;1.10;;;;;;;37.88;22.12;101280.31;5035078;28;20040;-75
2022/06/30 07:53:36;;;;;;;5.05;1.42;;;;;;;37.99;21.36;101276.25;5053710;28;20036;-75
2022/06/30 07:56:01;;;;;;;3.60;1.25;;;;;;;39.44;20.89;101279.38;5055204;28;20035;-75
2022/06/30 07:58:27;;;;;;;4.15;1.00;;;;;;;40.45;20.16;101279.09;5045367;28;20029;-72
2022/06/30 08:00:52;;;;;;;4.43;1.10;;;;;;;40.09;20.36;101282.06;5053597;28;20024;-72
2022/06/30 08:03:18;;;;;;;3.90;1.00;;;;;;;40.21;20.13;101288.66;5045996;28;20040;-72
2022/06/30 08:05:43;;;;;;;1.70;0.80;;;;;;;40.48;19.82;101286.06;5034953;28;20396;-73
2022/06/30 08:08:08;;;;;;;2.92;0.80;;;;;;;40.34;19.72;101294.22;5034274;28;20028;-72
2022/06/30 08:10:34;;;;;;;4.30;1.10;;;;;;;40.92;19.88;101284.78;5047190;28;20586;-72
2022/06/30 08:12:59;;;;;;;1.27;0.63;;;;;;;39.94;19.70;101290.34;5054003;28;20024;-73
2022/06/30 08:15:24;;;;;;;5.50;1.23;;;;;;;41.21;19.10;101291.00;5041668;28;20053;-75
2022/06/30 08:17:50;;;;;;;2.10;1.00;;;;;;;39.34;19.79;101302.41;5034050;28;20404;-75
2022/06/30 08:20:15;;;;;;;3.92;1.35;;;;;;;36.43;22.41;101308.84;5033992;28;20063;-75
2022/06/30 08:22:41;;;;;;;2.60;1.15;;;;;;;38.42;20.98;101302.94;5069325;28;20032;-75
2022/06/30 08:25:06;;;;;;;2.75;1.20;;;;;;;37.54;22.48;101302.53;5072581;28;20028;-75
2022/06/30 08:27:32;;;;;;;4.30;1.33;;;;;;;40.46;21.74;101299.09;5066690;28;20048;-75
2022/06/30 08:29:57;;;;;;;9.45;1.30;;;;;;;37.06;23.11;101311.69;5058190;28;20056;-74
2022/06/30 08:32:23;;;;;;;4.15;1.30;;;;;;;35.26;25.46;101306.28;5043892;28;20024;-75
2022/06/30 08:34:49;;;;;;;5.43;0.90;;;;;;;35.70;25.21;101302.44;5043553;28;20025;-75
2022/06/30 08:37:14;;;;;;;6.18;1.30;;;;;;;35.37;25.70;101285.28;5048535;28;20036;-74
2022/06/30 08:42:23;;;;;;;2.25;0.95;;;;;;;36.54;24.61;101288.59;5055019;28;20543;-75
2022/06/30 08:45:13;;;;;;;5.40;1.13;;;;;;;38.45;22.29;101281.56;5034317;28;20028;-73
2022/06/30 08:47:36;;;;;;;4.60;1.20;;;;;;;39.36;21.47;101294.88;5052082;28;20056;-73
2022/06/30 08:50:02;;;;;;;4.22;1.48;;;;;;;38.66;21.18;101290.88;5033322;28;20408;-72
2022/06/30 08:52:29;;;;;;;4.70;1.20;;;;;;;38.01;21.77;101296.84;5056802;28;20422;-73
2022/06/30 08:54:56;;;;;;;3.65;1.30;;;;;;;34.37;25.41;101294.88;5057809;28;20035;-73
2022/06/30 08:57:22;;;;;;;3.88;1.15;;;;;;;40.90;20.53;101278.66;5070612;28;20024;-72
2022/06/30 08:59:48;;;;;;;3.90;1.00;;;;;;;40.80;20.27;101283.69;5052097;28;20482;-73
2022/06/30 09:02:14;;;;;;;3.03;1.10;;;;;;;38.72;21.05;101292.00;5038039;28;20025;-72
2022/06/30 09:04:39;;;;;;;7.88;2.97;;;;;;;40.01;21.10;101297.56;5057774;28;20039;-72
2022/06/30 09:07:05;;;;;;;8.65;1.10;;;;;;;39.18;20.58;101289.84;5044833;28;20024;-72
2022/06/30 09:09:30;;;;;;;3.10;1.10;;;;;;;39.14;21.59;101293.13;5051788;28;20051;-72
2022/06/30 09:11:57;;;;;;;1.27;0.73;;;;;;;39.23;21.31;101294.75;5035194;28;20074;-72
2022/06/30 09:14:37;;;;;;;6.00;1.85;;;;;;;38.78;22.53;101294.00;5056090;28;20104;-73
2022/06/30 09:17:05;;;;;;;4.10;1.25;;;;;;;38.59;22.18;101289.94;5033151;28;20037;-74
2022/06/30 09:19:31;;;;;;;3.88;1.23;;;;;;;38.34;23.50;101302.00;5034058;28;20041;-74
2022/06/30 09:22:04;;;;;;;2.38;0.85;;;;;;;38.80;21.38;101300.97;5055430;28;20435;-74
2022/06/30 09:24:29;;;;;;;3.53;1.50;;;;;;;36.95;23.05;101302.03;5038173;28;20031;-72
2022/06/30 09:27:19;;;;;;;2.80;0.98;;;;;;;39.12;21.33;101298.81;5041703;28;20037;-72
2022/06/30 09:29:56;;;;;;;7.22;1.40;;;;;;;41.16;19.81;101290.78;5037140;28;20040;-72
2022/06/30 09:32:22;;;;;;;6.18;1.52;;;;;;;39.73;21.19;101296.72;5036655;28;20024;-71
2022/06/30 09:34:52;;;;;;;4.18;1.00;;;;;;;40.31;20.50;101302.84;5056100;28;20507;-70
2022/06/30 09:37:22;;;;;;;4.35;0.80;;;;;;;39.78;20.55;101307.91;5037602;28;20120;-71
2022/06/30 09:39:49;;;;;;;3.35;1.17;;;;;;;36.51;23.07;101313.44;5037155;28;20048;-70
2022/06/30 09:42:15;;;;;;;2.20;0.90;;;;;;;39.07;21.25;101311.34;5055370;28;20080;-71
2022/06/30 09:44:48;;;;;;;4.13;1.00;;;;;;;40.84;20.85;101309.63;5073063;28;20052;-71
2022/06/30 09:47:13;;;;;;;1.90;0.90;;;;;;;40.26;19.27;101321.75;5074533;28;20111;-71
2022/06/30 09:49:40;;;;;;;2.97;0.80;;;;;;;38.59;21.52;101325.44;5074090;28;20485;-71
2022/06/30 09:52:19;;;;;;;1.27;0.70;;;;;;;39.06;20.96;101317.84;5073521;28;20480;-71
2022/06/30 09:54:56;;;;;;;3.90;1.15;;;;;;;38.50;21.37;101333.72;5074183;28;20067;-71
2022/06/30 09:57:41;;;;;;;4.25;1.02;;;;;;;38.73;20.90;101326.50;5074146;28;20024;-71
2022/06/30 10:00:10;;;;;;;2.88;1.10;;;;;;;40.85;19.58;101325.88;5073211;28;20052;-71
2022/06/30 10:02:41;;;;;;;4.35;1.52;;;;;;;39.10;20.88;101327.34;5075376;28;20020;-71
2022/06/30 10:05:09;;;;;;;3.53;1.50;;;;;;;40.77;20.76;101326.03;5075367;28;20369;-71
2022/06/30 10:07:37;;;;;;;4.45;1.40;;;;;;;39.61;20.58;101324.59;5073427;28;20035;-71
2022/06/30 10:10:04;;;;;;;3.63;0.90;;;;;;;38.52;21.59;101331.63;5073930;28;20078;-71
2022/06/30 10:12:30;;;;;;;2.45;1.00;;;;;;;38.05;22.85;101329.25;5074056;28;20028;-71
2022/06/30 10:14:55;;;;;;;3.38;0.98;;;;;;;37.59;22.20;101336.41;5073245;28;20466;-71
2022/06/30 10:17:28;;;;;;;2.53;1.42;;;;;;;37.78;24.04;101331.50;5073917;28;20024;-71
2022/06/30 10:19:55;;;;;;;6.93;1.33;;;;;;;39.98;20.37;101330.78;5073269;28;20526;-71
2022/06/30 10:22:22;;;;;;;2.47;1.05;;;;;;;40.43;21.15;101329.63;5073740;28;20031;-72
2022/06/30 10:24:50;;;;;;;2.10;0.90;;;;;;;36.60;23.11;101326.00;5073690;28;20084;-70
2022/06/30 10:27:16;;;;;;;3.60;1.25;;;;;;;39.78;22.24;101329.78;5072924;28;20047;-73
2022/06/30 10:29:51;;;;;;;7.38;1.70;;;;;;;39.15;21.55;101330.41;5073592;28;20056;-73
2022/06/30 10:32:27;;;;;;;5.30;1.73;;;;;;;39.20;21.88;101327.94;5073545;28;20029;-71
2022/06/30 10:35:22;;;;;;;2.45;1.25;;;;;;;38.59;21.88;101330.91;5072682;28;20027;-71
2022/06/30 10:38:05;;;;;;;3.60;1.52;;;;;;;38.07;22.55;101329.88;5062098;28;20044;-73
2022/06/30 10:41:12;;;;;;;4.53;1.73;;;;;;;37.32;24.11;101319.56;5073123;28;20047;-73
2022/06/30 10:44:02;;;;;;;4.13;1.30;;;;;;;36.83;24.55;101330.69;5073486;28;20049;-73
2022/06/30 10:46:28;;;;;;;4.10;1.52;;;;;;;36.69;23.92;101332.25;5073224;28;20063;-73
2022/06/30 10:48:54;;;;;;;3.22;1.20;;;;;;;36.71;25.15;101335.63;5072484;28;20029;-73
2022/06/30 10:51:21;;;;;;;3.40;1.77;;;;;;;37.09;23.96;101332.28;5073266;28;20515;-74
2022/06/30 10:53:46;;;;;;;5.90;1.30;;;;;;;36.96;24.61;101330.97;5074563;28;20052;-74
2022/06/30 10:56:11;;;;;;;4.78;2.10;;;;;;;35.27;25.57;101328.84;5072643;28;20067;-74
2022/06/30 10:58:37;;;;;;;6.40;1.42;;;;;;;34.86;27.63;101332.31;5073018;28;20077;-73
2022/06/30 11:01:11;;;;;;;3.65;1.67;;;;;;;35.62;26.27;101338.63;5073171;28;20035;-73
2022/06/30 11:03:37;;;;;;;2.45;1.45;;;;;;;36.70;24.89;101333.09;5072329;28;20032;-74
2022/06/30 11:06:13;;;;;;;4.10;1.40;;;;;;;36.68;24.46;101331.41;5073018;28;20395;-73
2022/06/30 11:08:39;;;;;;;5.38;1.30;;;;;;;36.15;25.52;101343.75;5072854;28;20027;-73
2022/06/30 11:11:19;;;;;;;3.28;1.05;;;;;;;35.94;26.08;101352.44;5073623;28;20028;-73
2022/06/30 11:13:45;;;;;;;4.32;1.40;;;;;;;34.25;28.68;101345.81;5072695;28;20032;-73
2022/06/30 11:16:14;;;;;;;6.57;1.35;;;;;;;34.45;29.05;101342.91;5073363;28;20094;-73
2022/06/30 11:18:39;;;;;;;3.30;1.80;;;;;;;30.85;33.51;101342.88;5072522;28;20020;-72
2022/06/30 11:21:05;;;;;;;2.15;1.00;;;;;;;32.64;31.71;101333.72;5072745;28;20032;-73
2022/06/30 11:23:40;;;;;;;1.98;1.17;;;;;;;33.36;30.96;101327.72;5073269;28;20066;-71
2022/06/30 11:28:55;;;;;;;3.83;2.40;;;;;;;32.56;31.67;101331.78;5074156;28;20035;-73
2022/06/30 11:31:27;;;;;;;3.55;1.25;;;;;;;32.83;32.00;101332.84;5073124;28;20020;-73
2022/06/30 11:33:56;;;;;;;4.20;1.42;;;;;;;32.36;32.63;101319.31;5072617;28;20490;-73
2022/06/30 11:36:22;;;;;;;7.15;1.40;;;;;;;32.07;32.97;101321.03;5073763;28;20025;-73
2022/06/30 11:39:08;;;;;;;3.10;1.35;;;;;;;32.25;32.13;101313.06;5072552;28;20027;-73